Time;durP1;ratioP1;P1;durP2;ratioP2;P2;SDS_P1;SDS_P2;PMS_P1;PMS_P2;Temp;Humidity;BMP_temperature;BMP_pressure;BME280_temperature;BME280_humidity;BME280_pressure;Samples;Min_cycle;Max_cycle;Signal;HPM_P1;HPM_P2
2021/06/06 00:01:43;;;;;;;3.90;3.60;;;;;;;20.54;63.12;99511.09;5010804;28;20290;-82
2021/06/06 00:04:17;;;;;;;3.33;3.13;;;;;;;20.62;62.65;99526.00;4977926;28;20263;-85
2021/06/06 00:07:04;;;;;;;3.23;3.03;;;;;;;20.51;63.14;99502.69;4995575;28;20235;-84
2021/06/06 00:09:30;;;;;;;3.30;3.00;;;;;;;20.53;62.74;99509.47;5010749;28;20254;-81
2021/06/06 00:11:57;;;;;;;3.40;3.10;;;;;;;20.53;62.97;99506.75;5010806;28;20314;-83
2021/06/06 00:14:30;;;;;;;3.30;3.00;;;;;;;20.58;62.82;99500.44;5011772;28;20241;-83
2021/06/06 00:16:59;;;;;;;3.00;2.70;;;;;;;20.63;63.01;99516.72;5014488;28;20271;-83
2021/06/06 00:19:28;;;;;;;4.17;2.70;;;;;;;20.55;63.14;99510.00;4998432;28;20227;-84
2021/06/06 00:21:56;;;;;;;2.87;2.67;;;;;;;20.75;62.73;99500.00;4981677;28;20320;-84
2021/06/06 00:24:26;;;;;;;3.50;2.63;;;;;;;20.74;63.02;99506.53;5000800;28;20255;-80
2021/06/06 00:26:53;;;;;;;2.80;2.60;;;;;;;20.65;63.35;99509.91;5001339;28;20708;-83
2021/06/06 00:29:21;;;;;;;4.43;2.60;;;;;;;20.54;63.94;99504.84;5001527;28;20237;-83
2021/06/06 00:31:48;;;;;;;2.40;2.20;;;;;;;20.56;63.88;99492.56;4985144;28;20312;-86
2021/06/06 00:34:15;;;;;;;3.50;2.23;;;;;;;20.50;64.26;99488.28;5017557;28;20640;-82
2021/06/06 00:36:42;;;;;;;2.00;1.90;;;;;;;20.36;64.49;99486.50;5001651;28;20226;-84
2021/06/06 00:39:11;;;;;;;2.27;2.07;;;;;;;20.42;64.83;99498.97;5017899;28;20240;-82
2021/06/06 00:41:42;;;;;;;2.60;2.00;;;;;;;20.32;65.17;99497.16;4986165;28;20312;-85
2021/06/06 00:44:10;;;;;;;1.80;1.70;;;;;;;20.15;65.75;99491.31;4985106;28;20243;-84
2021/06/06 00:46:39;;;;;;;2.30;1.80;;;;;;;20.30;65.45;99490.34;5033698;28;20244;-84
2021/06/06 00:49:06;;;;;;;1.80;1.70;;;;;;;20.20;65.99;99494.78;5001349;28;20245;-84
2021/06/06 00:51:43;;;;;;;2.20;1.60;;;;;;;20.31;65.47;99497.44;5033583;28;20679;-84
2021/06/06 00:54:24;;;;;;;1.87;1.77;;;;;;;20.20;65.89;99491.28;5000920;28;20239;-85
2021/06/06 00:56:57;;;;;;;1.50;1.40;;;;;;;20.19;66.12;99486.91;5001086;28;20227;-86
2021/06/06 00:59:26;;;;;;;1.47;1.37;;;;;;;20.13;66.11;99494.31;5033401;28;20257;-85
2021/06/06 01:01:54;;;;;;;1.60;1.50;;;;;;;20.15;66.17;99488.59;5017575;28;20233;-86
2021/06/06 01:04:22;;;;;;;2.10;1.40;;;;;;;19.96;66.41;99477.59;4984623;28;20234;-86
2021/06/06 01:06:53;;;;;;;2.33;1.17;;;;;;;20.01;66.50;99485.72;5017316;28;20287;-86
2021/06/06 01:09:25;;;;;;;1.23;1.20;;;;;;;20.03;66.46;99488.13;4985292;28;20223;-84
2021/06/06 01:12:15;;;;;;;1.30;1.20;;;;;;;19.88;67.10;99486.34;5000804;28;20229;-86
2021/06/06 01:14:55;;;;;;;1.00;1.00;;;;;;;19.86;67.17;99476.88;5001558;28;20228;-86
2021/06/06 01:17:31;;;;;;;1.20;1.10;;;;;;;19.93;66.81;99480.88;4984964;28;20227;-85
2021/06/06 01:20:04;;;;;;;1.17;1.10;;;;;;;19.82;67.19;99479.34;5017144;28;20239;-82
2021/06/06 01:22:51;;;;;;;1.00;1.00;;;;;;;19.86;66.64;99493.19;5017800;28;20246;-86
2021/06/06 01:25:28;;;;;;;1.80;1.10;;;;;;;19.82;66.43;99481.25;5001349;28;20239;-87
2021/06/06 01:28:07;;;;;;;0.90;0.90;;;;;;;19.82;66.62;99487.50;5017887;28;20249;-85
2021/06/06 01:30:38;;;;;;;2.13;1.00;;;;;;;19.75;66.89;99476.94;5000357;28;20749;-86
2021/06/06 01:33:21;;;;;;;0.97;0.87;;;;;;;19.68;66.86;99479.19;5033135;28;20231;-86
2021/06/06 01:36:00;;;;;;;1.03;0.97;;;;;;;19.63;67.09;99481.94;5033071;28;20302;-86
2021/06/06 01:38:36;;;;;;;1.20;1.10;;;;;;;19.59;67.03;99470.00;5016786;28;20231;-86
2021/06/06 01:41:10;;;;;;;1.10;1.10;;;;;;;19.53;67.02;99465.69;5000591;28;20237;-84
2021/06/06 01:43:40;;;;;;;0.80;0.80;;;;;;;19.62;66.73;99474.03;5032854;28;20260;-82
2021/06/06 01:46:14;;;;;;;0.90;0.73;;;;;;;19.68;66.46;99460.16;4968198;28;20229;-87
2021/06/06 01:48:43;;;;;;;0.70;0.70;;;;;;;19.58;66.63;99465.66;5000548;28;20533;-86
2021/06/06 01:51:25;;;;;;;0.90;0.80;;;;;;;19.59;66.45;99469.19;5015930;28;20235;-86
2021/06/06 01:53:54;;;;;;;0.87;0.70;;;;;;;19.59;66.34;99470.00;5000153;28;20250;-86
2021/06/06 01:56:26;;;;;;;0.77;0.77;;;;;;;19.53;66.51;99465.69;4983552;28;20778;-85
2021/06/06 01:58:55;;;;;;;0.70;0.70;;;;;;;19.44;66.74;99466.56;5000440;28;20306;-81
2021/06/06 02:01:28;;;;;;;1.37;1.10;;;;;;;19.37;66.99;99469.53;5000715;28;20227;-84
2021/06/06 02:03:58;;;;;;;0.80;0.80;;;;;;;19.36;67.23;99468.72;4968588;28;20225;-86
2021/06/06 02:06:34;;;;;;;1.33;0.80;;;;;;;19.39;66.84;99469.28;5015896;28;20228;-82
2021/06/06 02:09:07;;;;;;;0.70;0.70;;;;;;;19.33;67.03;99474.72;4999856;28;20235;-84
2021/06/06 02:11:47;;;;;;;0.80;0.80;;;;;;;19.41;66.75;99469.81;5016105;28;20654;-84
2021/06/06 02:14:21;;;;;;;0.70;0.70;;;;;;;19.44;66.22;99480.97;4999995;28;20242;-86
2021/06/06 02:16:56;;;;;;;1.23;0.73;;;;;;;19.36;66.82;99476.09;5000257;28;20257;-86
2021/06/06 02:19:34;;;;;;;1.93;0.70;;;;;;;19.26;66.47;99471.53;5016083;28;20227;-87
2021/06/06 02:22:13;;;;;;;0.60;0.60;;;;;;;19.23;66.64;99485.66;5015349;28;20234;-85
2021/06/06 02:24:41;;;;;;;1.33;0.70;;;;;;;19.46;65.73;99483.38;5031903;28;20231;-87
2021/06/06 02:27:18;;;;;;;0.83;0.80;;;;;;;19.30;66.16;99488.88;4999434;28;20644;-86
2021/06/06 02:30:06;;;;;;;0.70;0.70;;;;;;;19.27;66.13;99481.28;4999659;28;20231;-86
2021/06/06 02:32:53;;;;;;;0.60;0.60;;;;;;;19.27;65.75;99483.22;4999102;28;20231;-86
2021/06/06 02:35:25;;;;;;;1.40;0.70;;;;;;;19.36;65.28;99492.41;5015644;28;20226;-87
2021/06/06 02:38:06;;;;;;;1.63;0.60;;;;;;;19.19;65.92;99491.91;4983069;28;20238;-87
2021/06/06 02:40:52;;;;;;;0.93;0.80;;;;;;;19.28;65.62;99495.69;5008771;28;20596;-86
2021/06/06 02:43:36;;;;;;;1.03;0.70;;;;;;;19.32;65.30;99502.97;4984752;28;20231;-86
2021/06/06 02:46:04;;;;;;;1.90;0.80;;;;;;;19.23;65.56;99490.25;4997850;28;20227;-85
2021/06/06 02:48:41;;;;;;;0.77;0.73;;;;;;;19.22;65.79;99503.03;4998998;28;20258;-86
2021/06/06 02:51:14;;;;;;;2.20;0.87;;;;;;;19.21;65.55;99485.13;4982965;28;20582;-85
2021/06/06 02:53:48;;;;;;;0.70;0.70;;;;;;;19.22;65.99;99500.31;4997765;28;20231;-87
2021/06/06 02:56:21;;;;;;;1.50;0.73;;;;;;;19.18;66.08;99510.13;4998604;28;20314;-87
2021/06/06 02:58:56;;;;;;;0.70;0.70;;;;;;;19.20;66.11;99509.84;4982891;28;20224;-86
2021/06/06 03:01:31;;;;;;;2.73;0.83;;;;;;;19.09;66.65;99505.53;4998727;28;20513;-83
2021/06/06 03:04:10;;;;;;;0.80;0.80;;;;;;;19.11;66.61;99514.22;5015032;28;20274;-87
2021/06/06 03:06:48;;;;;;;0.80;0.80;;;;;;;19.03;66.53;99507.50;5015352;28;20233;-87
2021/06/06 03:09:15;;;;;;;2.47;0.90;;;;;;;19.08;66.51;99520.22;4983021;28;20231;-86
2021/06/06 03:11:51;;;;;;;1.23;0.80;;;;;;;19.07;66.58;99519.41;4983638;28;20235;-87
2021/06/06 03:14:23;;;;;;;0.80;0.80;;;;;;;18.97;67.05;99527.59;4998102;28;20315;-87
2021/06/06 03:17:14;;;;;;;2.10;0.70;;;;;;;19.01;66.95;99536.81;4982930;28;20235;-87
2021/06/06 03:19:44;;;;;;;0.73;0.73;;;;;;;18.97;66.82;99521.34;4998817;28;20239;-88
2021/06/06 03:22:17;;;;;;;0.90;0.90;;;;;;;18.92;67.02;99524.88;4998034;28;20234;-85
2021/06/06 03:24:51;;;;;;;0.90;0.90;;;;;;;19.12;66.50;99543.03;4998237;28;20337;-85
2021/06/06 03:27:22;;;;;;;0.80;0.80;;;;;;;19.19;66.24;99548.94;4982385;28;20231;-84
2021/06/06 03:29:58;;;;;;;1.30;1.17;;;;;;;19.13;66.05;99539.22;4998547;28;20679;-87
2021/06/06 03:32:29;;;;;;;1.10;1.00;;;;;;;19.08;66.45;99533.81;4997991;28;21082;-85
2021/06/06 03:34:57;;;;;;;1.17;0.90;;;;;;;19.12;66.37;99541.13;4998296;28;20521;-84
2021/06/06 03:37:24;;;;;;;0.90;0.90;;;;;;;19.24;65.69;99538.88;4982443;28;20231;-85
2021/06/06 03:40:13;;;;;;;3.47;1.00;;;;;;;19.19;65.68;99536.19;4997975;28;20228;-87
2021/06/06 03:42:53;;;;;;;1.23;0.90;;;;;;;19.31;65.21;99544.84;4983830;28;20218;-87
2021/06/06 03:45:21;;;;;;;1.30;1.20;;;;;;;19.27;65.46;99543.75;4982421;28;20238;-82
2021/06/06 03:47:48;;;;;;;1.93;0.97;;;;;;;19.34;65.37;99546.19;4981900;28;20235;-86
2021/06/06 03:50:18;;;;;;;1.13;1.00;;;;;;;19.29;65.48;99538.88;5013334;28;20232;-86
2021/06/06 03:52:48;;;;;;;1.17;1.07;;;;;;;19.26;65.42;99535.91;4982922;28;20595;-85
2021/06/06 03:55:18;;;;;;;0.87;0.87;;;;;;;19.30;65.52;99543.22;5014695;28;20253;-84
2021/06/06 03:57:49;;;;;;;1.00;0.90;;;;;;;19.26;65.25;99534.00;4998588;28;20528;-83
2021/06/06 04:00:27;;;;;;;0.80;0.80;;;;;;;19.29;65.60;99548.91;5014066;28;20233;-86
2021/06/06 04:03:00;;;;;;;0.83;0.83;;;;;;;19.28;65.42;99539.94;5014616;28;20226;-81
2021/06/06 04:05:32;;;;;;;0.90;0.90;;;;;;;19.27;65.43;99548.41;4997914;28;20252;-81
2021/06/06 04:08:02;;;;;;;0.90;0.90;;;;;;;19.27;65.36;99540.25;4997882;28;20238;-82
2021/06/06 04:10:32;;;;;;;1.87;0.90;;;;;;;19.27;65.50;99543.75;4997947;28;20681;-81
2021/06/06 04:13:04;;;;;;;0.73;0.73;;;;;;;19.20;65.83;99543.25;4997923;28;20235;-84
2021/06/06 04:15:31;;;;;;;0.70;0.70;;;;;;;19.33;65.28;99553.50;4981924;28;20232;-87
2021/06/06 04:18:10;;;;;;;1.17;0.90;;;;;;;19.18;65.80;99545.41;5014160;28;20237;-83
2021/06/06 04:20:38;;;;;;;1.80;0.87;;;;;;;19.30;65.25;99551.38;4981449;28;20245;-85
2021/06/06 04:23:08;;;;;;;0.70;0.70;;;;;;;19.30;65.09;99548.66;5014990;28;20233;-86
2021/06/06 04:25:36;;;;;;;0.90;0.90;;;;;;;19.26;65.53;99539.44;4978441;28;20285;-87
2021/06/06 04:28:03;;;;;;;0.70;0.70;;;;;;;19.21;65.49;99547.59;4978055;28;20236;-86
2021/06/06 04:30:31;;;;;;;0.80;0.80;;;;;;;19.23;65.15;99544.59;4978512;28;20633;-86
2021/06/06 04:32:58;;;;;;;0.80;0.80;;;;;;;19.28;64.95;99556.25;4994367;28;20238;-85
2021/06/06 04:35:26;;;;;;;1.23;0.70;;;;;;;19.24;65.22;99551.66;4978651;28;20385;-84
2021/06/06 04:37:56;;;;;;;0.60;0.60;;;;;;;19.35;64.57;99556.78;4978836;28;20262;-84
2021/06/06 04:40:26;;;;;;;1.03;0.60;;;;;;;19.31;64.95;99554.91;4978367;28;20236;-84
2021/06/06 04:42:53;;;;;;;0.93;0.70;;;;;;;19.33;64.69;99545.34;4994540;28;20249;-86
2021/06/06 04:45:21;;;;;;;1.30;0.80;;;;;;;19.35;64.78;99551.34;4978269;28;20232;-87
2021/06/06 04:47:48;;;;;;;1.70;0.63;;;;;;;19.33;65.25;99561.66;4978296;28;20238;-86
2021/06/06 04:50:18;;;;;;;0.80;0.80;;;;;;;19.25;65.25;99554.09;4993698;28;20229;-87
2021/06/06 04:52:47;;;;;;;0.80;0.70;;;;;;;19.32;65.00;99560.03;4994240;28;20565;-87
2021/06/06 04:55:19;;;;;;;0.70;0.60;;;;;;;19.33;64.59;99547.25;4994364;28;20260;-87
2021/06/06 04:57:47;;;;;;;0.70;0.70;;;;;;;19.39;64.53;99554.31;4978176;28;20232;-87
2021/06/06 05:00:20;;;;;;;2.10;0.80;;;;;;;19.35;64.89;99561.38;4979079;28;20569;-86
2021/06/06 05:02:47;;;;;;;0.60;0.60;;;;;;;19.56;63.95;99567.56;5014179;28;20223;-85
2021/06/06 05:05:20;;;;;;;0.70;0.70;;;;;;;19.44;64.72;99564.38;4997603;28;20531;-83
2021/06/06 05:07:53;;;;;;;1.63;0.60;;;;;;;19.47;64.73;99569.22;4997749;28;20238;-86
2021/06/06 05:10:22;;;;;;;0.67;0.67;;;;;;;19.39;64.72;99557.03;5013319;28;20293;-86
2021/06/06 05:12:51;;;;;;;0.70;0.60;;;;;;;19.45;64.63;99569.53;4997881;28;20233;-84
2021/06/06 05:15:19;;;;;;;1.10;0.70;;;;;;;19.36;64.61;99552.16;4981422;28;20247;-81
2021/06/06 05:17:47;;;;;;;0.60;0.60;;;;;;;19.47;64.50;99575.47;4981563;28;20239;-85
2021/06/06 05:20:17;;;;;;;0.63;0.60;;;;;;;19.48;64.24;99568.16;4981033;28;20652;-87
2021/06/06 05:22:47;;;;;;;0.53;0.53;;;;;;;19.49;64.57;99567.06;4997364;28;20314;-84
2021/06/06 05:25:16;;;;;;;1.07;0.50;;;;;;;19.31;64.68;99552.19;4997055;28;20326;-86
2021/06/06 05:27:43;;;;;;;0.53;0.53;;;;;;;19.58;64.44;99574.34;4981170;28;20235;-84
2021/06/06 05:30:16;;;;;;;0.67;0.67;;;;;;;19.64;64.13;99575.16;4980923;28;20331;-84
2021/06/06 05:32:43;;;;;;;0.80;0.80;;;;;;;19.68;63.71;99568.88;4997157;28;20278;-87
2021/06/06 05:35:10;;;;;;;1.23;0.60;;;;;;;19.81;63.67;99574.75;4980959;28;20546;-83
2021/06/06 05:37:37;;;;;;;0.50;0.50;;;;;;;19.75;64.08;99560.38;4980640;28;20779;-84
2021/06/06 05:40:04;;;;;;;1.43;0.80;;;;;;;19.78;63.63;99573.44;4996673;28;20729;-85
2021/06/06 05:42:31;;;;;;;0.60;0.60;;;;;;;19.77;63.61;99577.25;4980945;28;20229;-86
2021/06/06 05:44:58;;;;;;;0.60;0.60;;;;;;;19.77;63.70;99569.09;4980938;28;20288;-87
2021/06/06 05:47:25;;;;;;;1.67;0.90;;;;;;;19.92;63.34;99579.88;4964592;28;20233;-85
2021/06/06 05:49:51;;;;;;;0.60;0.60;;;;;;;19.99;63.35;99582.25;4980853;28;20233;-79
2021/06/06 05:52:25;;;;;;;0.60;0.60;;;;;;;20.04;63.04;99584.94;4981213;28;20237;-85
2021/06/06 05:54:52;;;;;;;0.70;0.70;;;;;;;20.05;63.06;99581.13;4980710;28;20311;-84
2021/06/06 05:57:19;;;;;;;0.67;0.60;;;;;;;20.09;62.56;99580.28;4996559;28;20227;-85
2021/06/06 05:59:46;;;;;;;0.60;0.60;;;;;;;20.06;63.17;99582.78;4996656;28;20581;-84
2021/06/06 06:02:13;;;;;;;0.80;0.80;;;;;;;20.18;62.59;99584.03;4996081;28;20248;-83
2021/06/06 06:04:40;;;;;;;0.60;0.60;;;;;;;20.16;62.52;99579.94;4980547;28;20227;-80
2021/06/06 06:07:07;;;;;;;0.67;0.60;;;;;;;20.31;61.97;99588.03;4996284;28;20240;-84
2021/06/06 06:09:33;;;;;;;0.60;0.60;;;;;;;20.36;61.61;99568.94;4996440;28;20229;-83
2021/06/06 06:12:03;;;;;;;0.60;0.60;;;;;;;20.49;61.23;99572.91;4963021;28;20281;-81
2021/06/06 06:14:30;;;;;;;0.50;0.50;;;;;;;20.58;60.88;99576.63;4995974;28;20255;-86
2021/06/06 06:16:56;;;;;;;0.50;0.50;;;;;;;20.71;61.15;99575.19;4980017;28;20264;-85
2021/06/06 06:19:23;;;;;;;1.53;0.50;;;;;;;20.98;60.24;99578.16;4995939;28;20232;-83
2021/06/06 06:21:50;;;;;;;0.53;0.53;;;;;;;21.07;60.03;99579.16;4980078;28;20253;-82
2021/06/06 06:24:16;;;;;;;0.87;0.57;;;;;;;20.92;60.30;99577.41;4981193;28;20250;-85
2021/06/06 06:26:43;;;;;;;0.50;0.50;;;;;;;21.14;59.84;99574.19;4983353;28;20327;-83
2021/06/06 06:29:23;;;;;;;0.60;0.50;;;;;;;21.19;59.28;99576.03;5015709;28;20253;-85
2021/06/06 06:31:52;;;;;;;0.83;0.40;;;;;;;21.30;59.21;99574.81;4999153;28;20231;-85
2021/06/06 06:34:32;;;;;;;0.50;0.40;;;;;;;21.32;59.49;99584.31;4999104;28;20221;-83
2021/06/06 06:36:59;;;;;;;0.93;0.60;;;;;;;21.14;60.09;99587.03;4992247;28;20220;-85
2021/06/06 06:39:26;;;;;;;0.40;0.40;;;;;;;20.96;60.63;99597.50;5016460;28;20346;-86
2021/06/06 06:41:53;;;;;;;0.73;0.60;;;;;;;20.99;60.52;99577.06;5018329;28;20233;-85
2021/06/06 06:44:19;;;;;;;0.60;0.50;;;;;;;21.01;60.79;99593.91;4992710;28;20266;-86
2021/06/06 06:46:49;;;;;;;2.67;0.40;;;;;;;20.96;60.69;99593.97;5002219;28;20223;-86
2021/06/06 06:49:17;;;;;;;0.73;0.47;;;;;;;20.98;60.75;99598.03;5018664;28;20227;-83
2021/06/06 06:51:44;;;;;;;0.83;0.40;;;;;;;21.12;60.82;99610.97;5001868;28;20538;-85
2021/06/06 06:54:10;;;;;;;0.43;0.43;;;;;;;21.19;60.46;99595.09;5001411;28;20705;-81
2021/06/06 06:56:37;;;;;;;0.77;0.50;;;;;;;21.37;59.71;99588.91;5001980;28;20527;-86
2021/06/06 06:59:04;;;;;;;0.50;0.50;;;;;;;21.82;58.96;99598.41;5035519;28;20256;-81
2021/06/06 07:01:31;;;;;;;2.90;0.37;;;;;;;22.10;58.02;99605.66;5002093;28;20235;-84
2021/06/06 07:03:58;;;;;;;0.60;0.60;;;;;;;22.16;57.43;99596.28;5035556;28;20252;-83
2021/06/06 07:06:25;;;;;;;0.40;0.40;;;;;;;22.50;56.52;99611.56;5017067;28;20241;-79
2021/06/06 07:08:52;;;;;;;0.50;0.50;;;;;;;22.79;56.00;99606.75;5001646;28;20223;-80
2021/06/06 07:11:20;;;;;;;3.10;2.80;;;;;;;23.07;54.88;99616.59;4989386;28;20312;-82
2021/06/06 07:13:48;;;;;;;0.60;0.60;;;;;;;23.03;54.74;99617.50;4993841;28;20228;-82
2021/06/06 07:16:17;;;;;;;0.40;0.40;;;;;;;23.08;54.24;99609.22;5017128;28;20259;-82
2021/06/06 07:18:44;;;;;;;0.97;0.63;;;;;;;23.29;53.93;99615.91;5015238;28;20224;-82
2021/06/06 07:21:21;;;;;;;0.77;0.70;;;;;;;23.66;53.08;99603.97;5009999;28;20640;-80
2021/06/06 07:23:49;;;;;;;1.10;0.73;;;;;;;23.71;52.85;99606.59;5008513;28;20252;-79
2021/06/06 07:26:20;;;;;;;0.95;0.90;;;;;;;23.73;52.57;99609.84;5033291;28;20258;-82
2021/06/06 07:28:47;;;;;;;1.17;0.90;;;;;;;23.95;52.32;99609.06;4997272;28;20358;-81
2021/06/06 07:31:15;;;;;;;0.60;0.60;;;;;;;23.99;52.98;99608.16;4994634;28;20269;-80
2021/06/06 07:33:44;;;;;;;0.68;0.60;;;;;;;23.99;51.61;99610.88;5017231;28;20222;-82
2021/06/06 07:36:14;;;;;;;1.27;0.70;;;;;;;24.21;51.36;99612.91;4993600;28;20313;-85
2021/06/06 07:38:42;;;;;;;0.68;0.60;;;;;;;24.11;51.13;99607.63;4963705;28;20242;-79
2021/06/06 07:41:09;;;;;;;0.68;0.50;;;;;;;24.04;52.02;99601.75;4995693;28;20230;-83
2021/06/06 07:43:36;;;;;;;0.57;0.50;;;;;;;24.27;51.25;99614.38;4981065;28;20238;-79
2021/06/06 07:46:04;;;;;;;0.50;0.50;;;;;;;24.36;51.03;99620.72;4981633;28;20305;-80
2021/06/06 07:48:31;;;;;;;0.63;0.60;;;;;;;24.37;50.24;99602.38;4981760;28;20333;-84
2021/06/06 07:50:58;;;;;;;0.68;0.60;;;;;;;24.37;50.32;99614.13;4981133;28;20323;-82
2021/06/06 07:53:26;;;;;;;0.40;0.40;;;;;;;24.34;50.64;99611.22;4994964;28;20248;-80
2021/06/06 07:55:55;;;;;;;0.50;0.50;;;;;;;23.94;51.97;99623.88;5018187;28;20653;-83
2021/06/06 07:58:37;;;;;;;0.40;0.40;;;;;;;23.74;52.23;99619.69;5006193;28;20231;-82
2021/06/06 08:01:06;;;;;;;0.50;0.50;;;;;;;23.75;52.60;99615.03;5023108;28;20344;-80
2021/06/06 08:03:33;;;;;;;1.15;0.60;;;;;;;23.67;52.96;99614.59;5004809;28;20316;-81
2021/06/06 08:06:03;;;;;;;0.52;0.52;;;;;;;23.59;53.12;99620.00;5004409;28;20226;-80
2021/06/06 08:08:30;;;;;;;0.60;0.60;;;;;;;23.35;53.35;99613.88;4985185;28;20256;-81
2021/06/06 08:10:58;;;;;;;0.60;0.60;;;;;;;23.35;53.15;99631.09;5016472;28;20336;-83
2021/06/06 08:13:25;;;;;;;0.95;0.50;;;;;;;23.02;53.80;99607.69;4990698;28;20707;-82
2021/06/06 08:15:52;;;;;;;0.60;0.57;;;;;;;23.24;53.89;99622.28;5025792;28;20232;-83
2021/06/06 08:18:24;;;;;;;1.92;0.80;;;;;;;22.95;54.28;99629.16;4974302;28;20223;-81
2021/06/06 08:20:55;;;;;;;0.70;0.70;;;;;;;22.86;54.51;99633.69;4988746;28;20218;-85
2021/06/06 08:23:22;;;;;;;1.27;0.60;;;;;;;22.67;55.17;99631.78;5004654;28;20751;-80
2021/06/06 08:25:49;;;;;;;0.60;0.60;;;;;;;22.70;55.27;99638.59;5023393;28;20316;-80
2021/06/06 08:28:17;;;;;;;0.90;0.60;;;;;;;22.71;55.79;99645.69;5008439;28;20218;-85
2021/06/06 08:30:49;;;;;;;0.68;0.60;;;;;;;22.57;55.40;99625.66;5000270;28;20229;-82
2021/06/06 08:33:17;;;;;;;2.15;0.60;;;;;;;22.61;55.54;99629.44;5000805;28;20234;-80
2021/06/06 08:35:56;;;;;;;2.20;0.60;;;;;;;22.37;55.75;99635.00;5003435;28;20241;-85
2021/06/06 08:38:24;;;;;;;2.30;0.50;;;;;;;22.36;56.39;99644.28;5019898;28;20232;-83
2021/06/06 08:41:14;;;;;;;1.07;0.60;;;;;;;22.02;56.86;99641.00;5003581;28;20239;-82
2021/06/06 08:44:02;;;;;;;0.40;0.40;;;;;;;22.18;56.77;99636.91;5013828;28;20226;-79
2021/06/06 08:46:35;;;;;;;0.77;0.50;;;;;;;22.20;57.00;99646.44;5029769;28;20228;-81
2021/06/06 08:49:04;;;;;;;0.60;0.40;;;;;;;22.06;56.84;99645.56;5017816;28;20532;-80
2021/06/06 08:52:08;;;;;;;2.03;0.50;;;;;;;22.45;56.38;99656.16;4982915;28;20585;-79
2021/06/06 08:54:49;;;;;;;0.93;0.77;;;;;;;22.49;55.93;99651.72;4971106;28;20358;-79
2021/06/06 08:57:22;;;;;;;0.50;0.50;;;;;;;22.86;55.31;99663.72;5020028;28;20224;-85
2021/06/06 08:59:53;;;;;;;0.60;0.60;;;;;;;23.01;54.43;99652.50;5019983;28;20235;-80
2021/06/06 09:02:38;;;;;;;0.50;0.50;;;;;;;23.10;53.98;99646.06;5010360;28;20225;-85
2021/06/06 09:05:08;;;;;;;0.57;0.57;;;;;;;23.13;54.41;99661.06;5019989;28;20228;-80
2021/06/06 09:07:44;;;;;;;0.88;0.60;;;;;;;23.15;54.21;99651.44;5020182;28;20308;-84
2021/06/06 09:10:15;;;;;;;0.50;0.50;;;;;;;23.14;53.66;99657.22;4987232;28;20231;-82
2021/06/06 09:12:42;;;;;;;0.60;0.60;;;;;;;23.34;53.44;99650.53;5020037;28;20233;-85
2021/06/06 09:15:11;;;;;;;0.60;0.60;;;;;;;;;;5003833;28;20233;-81
2021/06/06 09:17:50;;;;;;;0.50;0.50;;;;;;;23.50;52.95;99660.09;5019673;28;20257;-80
2021/06/06 09:20:33;;;;;;;0.60;0.60;;;;;;;23.64;52.12;99649.97;4983703;28;20508;-81
2021/06/06 09:23:24;;;;;;;0.43;0.43;;;;;;;23.70;52.67;99662.44;5011486;28;20260;-80
2021/06/06 09:26:17;;;;;;;0.50;0.40;;;;;;;23.94;51.27;99649.31;5019821;28;20269;-79
2021/06/06 09:28:46;;;;;;;0.52;0.50;;;;;;;24.01;51.42;99652.44;5019173;28;20230;-80
2021/06/06 09:31:16;;;;;;;0.43;0.43;;;;;;;24.29;50.93;99657.88;5015835;28;20643;-82
2021/06/06 09:33:49;;;;;;;0.60;0.60;;;;;;;24.02;52.02;99656.81;5018905;28;20316;-80
2021/06/06 09:36:19;;;;;;;0.63;0.63;;;;;;;24.39;50.39;99663.13;5002441;28;20644;-79
2021/06/06 09:38:48;;;;;;;0.75;0.75;;;;;;;24.70;50.04;99655.78;4986422;28;20234;-85
2021/06/06 09:41:17;;;;;;;0.68;0.60;;;;;;;24.96;49.11;99666.94;5019437;28;20313;-81
2021/06/06 09:44:01;;;;;;;0.50;0.50;;;;;;;24.83;49.62;99662.31;4986686;28;20322;-83
2021/06/06 09:46:34;;;;;;;1.50;0.60;;;;;;;25.11;49.20;99655.56;5018899;28;20230;-80
2021/06/06 09:49:35;;;;;;;0.60;0.60;;;;;;;25.07;49.88;99662.81;5001201;28;20222;-82
2021/06/06 09:52:18;;;;;;;0.68;0.65;;;;;;;25.20;48.60;99658.34;4988535;28;20525;-79
2021/06/06 09:54:48;;;;;;;0.77;0.77;;;;;;;25.41;48.07;99653.94;4967402;28;20229;-84
2021/06/06 09:57:28;;;;;;;0.70;0.70;;;;;;;25.44;48.52;99659.59;5011368;28;20235;-84
2021/06/06 10:00:13;;;;;;;0.88;0.77;;;;;;;25.60;47.72;99665.50;4986631;28;20642;-81
2021/06/06 10:02:44;;;;;;;1.00;0.90;;;;;;;25.50;47.95;99659.44;5036006;28;20228;-79
2021/06/06 10:05:22;;;;;;;0.80;0.80;;;;;;;25.34;48.24;99664.53;5018856;28;20539;-81
2021/06/06 10:08:00;;;;;;;0.80;0.80;;;;;;;25.27;48.26;99662.28;5018992;28;20242;-80
2021/06/06 10:10:42;;;;;;;1.17;0.98;;;;;;;25.26;48.78;99666.13;5002692;28;20279;-85
2021/06/06 10:13:12;;;;;;;0.90;0.90;;;;;;;25.13;49.17;99664.31;5007375;28;20564;-85
2021/06/06 10:15:43;;;;;;;0.98;0.98;;;;;;;25.17;49.06;99653.50;4967024;28;20319;-84
2021/06/06 10:18:32;;;;;;;2.22;0.93;;;;;;;25.29;49.18;99665.50;4998769;28;20237;-83
2021/06/06 10:21:14;;;;;;;1.25;1.20;;;;;;;25.41;48.70;99668.47;4966869;28;20230;-83
2021/06/06 10:23:44;;;;;;;1.02;1.00;;;;;;;25.36;48.97;99665.06;4981164;28;20325;-82
2021/06/06 10:26:35;;;;;;;1.02;1.02;;;;;;;25.26;48.98;99657.91;5013679;28;20230;-80
2021/06/06 10:29:31;;;;;;;1.77;0.95;;;;;;;25.44;48.42;99659.59;5015498;28;20534;-85
2021/06/06 10:32:13;;;;;;;0.73;0.73;;;;;;;25.52;47.99;99660.78;4983178;28;20300;-85
2021/06/06 10:35:03;;;;;;;1.33;1.23;;;;;;;25.43;48.30;99660.72;4982158;28;20228;-79
2021/06/06 10:37:31;;;;;;;1.23;1.10;;;;;;;25.51;48.04;99663.81;5008362;28;20229;-84
2021/06/06 10:40:07;;;;;;;1.00;1.00;;;;;;;25.60;47.82;99664.69;4983114;28;20650;-79
2021/06/06 10:42:40;;;;;;;1.10;0.93;;;;;;;25.65;47.63;99656.31;4982843;28;20232;-82
2021/06/06 10:45:30;;;;;;;1.48;1.20;;;;;;;25.90;47.42;99663.00;4982822;28;20593;-80
2021/06/06 10:48:02;;;;;;;1.67;1.08;;;;;;;25.92;47.41;99657.97;4999076;28;20219;-84
2021/06/06 10:50:39;;;;;;;0.90;0.90;;;;;;;26.05;46.81;99660.59;4998881;28;20707;-83
2021/06/06 10:53:14;;;;;;;0.95;0.95;;;;;;;26.38;46.78;99669.22;4997957;28;20610;-81
2021/06/06 10:56:18;;;;;;;1.10;1.10;;;;;;;26.59;46.05;99661.94;5015389;28;20238;-82
2021/06/06 10:58:48;;;;;;;1.52;1.42;;;;;;;26.76;45.50;99663.84;4975630;28;20516;-82
2021/06/06 11:01:18;;;;;;;1.92;1.55;;;;;;;26.96;45.35;99663.22;5000820;28;20653;-84
2021/06/06 11:04:05;;;;;;;0.95;0.95;;;;;;;27.02;44.08;99653.63;4998311;28;20230;-83
2021/06/06 11:06:34;;;;;;;2.10;1.98;;;;;;;27.02;44.74;99661.06;4982054;28;20285;-83
2021/06/06 11:09:03;;;;;;;9.15;8.25;;;;;;;27.11;44.68;99643.41;4998286;28;20241;-80
2021/06/06 11:11:35;;;;;;;2.67;2.30;;;;;;;27.56;43.72;99651.22;4982238;28;20235;-84
2021/06/06 11:14:08;;;;;;;1.20;1.10;;;;;;;27.82;42.98;99651.84;4982084;28;20590;-79
2021/06/06 11:16:48;;;;;;;0.90;0.90;;;;;;;27.69;42.98;99647.41;4998143;28;20233;-84
2021/06/06 11:19:20;;;;;;;0.80;0.80;;;;;;;28.18;42.11;99651.34;4998670;28;20534;-82
2021/06/06 11:21:49;;;;;;;1.73;1.00;;;;;;;28.09;41.53;99655.28;4998229;28;20332;-80
2021/06/06 11:24:39;;;;;;;1.00;1.00;;;;;;;28.09;41.34;99642.28;4997291;28;20234;-81
2021/06/06 11:27:19;;;;;;;0.80;0.80;;;;;;;28.19;41.97;99644.66;5009917;28;20316;-84
2021/06/06 11:29:46;;;;;;;2.00;0.90;;;;;;;28.39;41.65;99641.09;4981917;28;20329;-83
2021/06/06 11:32:17;;;;;;;0.95;0.95;;;;;;;28.72;40.74;99635.66;4998535;28;20262;-83
2021/06/06 11:34:56;;;;;;;0.90;0.90;;;;;;;28.65;40.42;99626.28;5008225;28;20237;-84
2021/06/06 11:37:29;;;;;;;0.80;0.80;;;;;;;29.24;39.83;99640.59;5015228;28;20231;-83
2021/06/06 11:39:59;;;;;;;1.55;1.13;;;;;;;29.51;39.24;99630.84;4981985;28;20227;-82
2021/06/06 11:42:30;;;;;;;1.10;1.00;;;;;;;29.72;38.66;99629.56;5001419;28;20301;-83
2021/06/06 11:45:05;;;;;;;1.10;1.10;;;;;;;29.77;38.03;99631.28;5017452;28;20317;-80
2021/06/06 11:47:40;;;;;;;1.05;1.05;;;;;;;29.86;38.12;99620.16;5017546;28;20225;-83
2021/06/06 11:50:23;;;;;;;1.00;1.00;;;;;;;29.88;38.16;99613.13;5017133;28;20648;-82
2021/06/06 11:53:08;;;;;;;1.00;1.00;;;;;;;30.22;37.67;99617.31;5034953;28;20568;-81
2021/06/06 11:55:50;;;;;;;2.33;1.80;;;;;;;29.53;36.83;99601.78;5035013;28;20233;-84
2021/06/06 11:58:24;;;;;;;1.58;1.25;;;;;;;29.59;38.40;99599.56;4994613;28;20226;-83
2021/06/06 12:00:55;;;;;;;0.95;0.90;;;;;;;29.77;38.76;99596.19;4994974;28;20280;-84